createdAt,value
2018-08-23T00:01:36.508Z,23.04
2018-08-23T00:04:12.193Z,23.04
2018-08-23T00:06:52.500Z,23.01
2018-08-23T00:09:22.092Z,22.88
2018-08-23T00:11:51.685Z,22.95
2018-08-23T00:14:21.288Z,22.92
2018-08-23T00:16:50.935Z,22.85
2018-08-23T00:19:20.532Z,22.86
2018-08-23T00:21:51.053Z,22.76
2018-08-23T00:24:21.673Z,22.83
2018-08-23T00:26:59.721Z,22.81
2018-08-23T00:29:32.391Z,22.79
2018-08-23T00:32:04.910Z,22.73
2018-08-23T00:34:37.693Z,22.61
2018-08-23T00:37:08.000Z,22.55
2018-08-23T00:39:37.575Z,22.47
2018-08-23T00:42:10.171Z,22.55
2018-08-23T00:44:55.592Z,22.60
2018-08-23T00:47:29.884Z,22.59
2018-08-23T00:49:59.584Z,22.60
2018-08-23T00:52:41.844Z,22.56
2018-08-23T00:55:17.064Z,22.54
2018-08-23T00:57:47.292Z,22.55
2018-08-23T01:00:23.202Z,22.54
2018-08-23T01:02:55.512Z,22.32
2018-08-23T01:05:30.111Z,22.28
2018-08-23T01:07:59.714Z,22.24
2018-08-23T01:10:29.291Z,22.10
2018-08-23T01:13:00.547Z,22.16
2018-08-23T01:15:30.735Z,22.22
2018-08-23T01:18:12.676Z,22.24
2018-08-23T01:20:42.950Z,22.10
2018-08-23T01:23:12.524Z,22.19
2018-08-23T01:25:43.325Z,22.17
2018-08-23T01:28:12.993Z,22.12
2018-08-23T01:30:42.931Z,22.14
2018-08-23T01:33:13.815Z,22.01
2018-08-23T01:35:44.515Z,22.02
2018-08-23T01:38:14.628Z,21.95
2018-08-23T01:40:44.412Z,21.88
2018-08-23T01:43:13.957Z,21.39
2018-08-23T01:45:43.487Z,21.73
2018-08-23T01:48:13.001Z,21.79
2018-08-23T01:50:42.535Z,21.84
2018-08-23T01:53:12.037Z,21.78
2018-08-23T01:55:41.638Z,21.80
2018-08-23T01:58:11.275Z,21.72
2018-08-23T02:00:40.773Z,21.62
2018-08-23T02:03:10.368Z,21.74
2018-08-23T02:05:43.191Z,21.66
2018-08-23T02:08:12.703Z,21.61
2018-08-23T02:10:42.272Z,21.73
2018-08-23T02:13:16.011Z,21.59
2018-08-23T02:15:51.380Z,21.69
2018-08-23T02:18:20.913Z,21.67
2018-08-23T02:20:55.700Z,21.76
2018-08-23T02:23:25.271Z,21.67
2018-08-23T02:25:54.798Z,21.74
2018-08-23T02:28:24.293Z,21.65
2018-08-23T02:30:55.646Z,21.69
2018-08-23T02:33:25.964Z,21.67
2018-08-23T02:36:22.329Z,21.61
2018-08-23T02:39:02.028Z,21.67
2018-08-23T02:41:31.779Z,21.49
2018-08-23T02:44:01.400Z,21.57
2018-08-23T02:46:32.766Z,21.61
2018-08-23T02:49:02.357Z,21.59
2018-08-23T02:51:42.097Z,21.57
2018-08-23T02:54:13.446Z,21.56
2018-08-23T02:56:48.073Z,21.57
2018-08-23T02:59:17.612Z,21.53
2018-08-23T03:01:48.227Z,21.60
2018-08-23T03:04:22.641Z,21.50
2018-08-23T03:06:53.098Z,21.53
2018-08-23T03:09:24.573Z,21.51
2018-08-23T03:11:55.191Z,21.54
2018-08-23T03:14:25.596Z,21.56
2018-08-23T03:17:33.672Z,21.46
2018-08-23T03:20:10.947Z,21.53
2018-08-23T03:22:40.983Z,21.56
2018-08-23T03:25:12.680Z,21.47
2018-08-23T03:27:42.304Z,21.48
2018-08-23T03:30:12.972Z,21.48
2018-08-23T03:32:42.563Z,21.34
2018-08-23T03:35:12.081Z,21.33
2018-08-23T03:37:41.715Z,21.19
2018-08-23T03:40:12.612Z,21.16
2018-08-23T03:42:42.318Z,21.15
2018-08-23T03:45:16.927Z,21.05
2018-08-23T03:47:53.687Z,21.03
2018-08-23T03:50:23.179Z,21.00
2018-08-23T03:52:53.936Z,20.98
2018-08-23T03:55:24.548Z,20.97
2018-08-23T03:57:58.158Z,20.99
2018-08-23T04:00:32.847Z,20.97
2018-08-23T04:03:02.565Z,21.03
2018-08-23T04:05:32.153Z,21.04
2018-08-23T04:08:01.712Z,21.05
2018-08-23T04:10:31.244Z,21.11
2018-08-23T04:13:00.817Z,21.07
2018-08-23T04:15:31.454Z,21.18
2018-08-23T04:18:09.671Z,21.29
2018-08-23T04:20:49.004Z,21.28
2018-08-23T04:23:18.483Z,21.40
2018-08-23T04:25:48.104Z,21.57
2018-08-23T04:28:17.656Z,21.63
2018-08-23T04:30:47.220Z,21.83
2018-08-23T04:33:16.817Z,21.96
2018-08-23T04:35:46.419Z,22.12
2018-08-23T04:38:15.994Z,22.23
2018-08-23T04:40:53.257Z,22.45
2018-08-23T04:43:22.862Z,22.52
2018-08-23T04:45:52.413Z,22.71
2018-08-23T04:48:21.927Z,22.28
2018-08-23T04:50:51.452Z,23.06
2018-08-23T04:53:21.114Z,23.34
2018-08-23T04:55:50.727Z,23.43
2018-08-23T04:58:20.305Z,23.50
2018-08-23T05:00:49.942Z,23.79
2018-08-23T05:03:19.708Z,23.99
2018-08-23T05:05:49.172Z,24.09
2018-08-23T05:08:18.823Z,24.23
2018-08-23T05:10:48.400Z,24.27
2018-08-23T05:13:18.032Z,24.51
2018-08-23T05:15:47.545Z,24.61
2018-08-23T05:18:17.333Z,24.84
2018-08-23T05:20:47.757Z,24.97
2018-08-23T05:23:17.916Z,25.10
2018-08-23T05:25:47.827Z,25.16
2018-08-23T05:28:19.659Z,25.15
2018-08-23T05:30:49.975Z,25.22
2018-08-23T05:33:20.640Z,25.33
2018-08-23T05:35:50.317Z,25.47
2018-08-23T05:38:20.428Z,25.44
2018-08-23T05:41:01.430Z,25.55
2018-08-23T05:43:30.959Z,25.52
2018-08-23T05:46:01.045Z,25.58
2018-08-23T05:48:30.922Z,25.56
2018-08-23T05:51:04.776Z,25.69
2018-08-23T05:53:38.656Z,25.69
2018-08-23T05:56:08.933Z,25.75
2018-08-23T05:58:38.611Z,25.95
2018-08-23T06:01:08.364Z,25.94
2018-08-23T06:03:38.214Z,26.02
2018-08-23T06:06:07.983Z,26.36
2018-08-23T06:08:38.129Z,26.19
2018-08-23T06:11:11.291Z,26.39
2018-08-23T06:13:41.112Z,26.33
2018-08-23T06:16:10.758Z,26.36
2018-08-23T06:18:40.339Z,26.36
2018-08-23T06:21:09.885Z,26.53
2018-08-23T06:26:42.587Z,26.67
2018-08-23T06:29:14.817Z,26.59
2018-08-23T06:32:04.803Z,26.66
2018-08-23T06:34:35.938Z,26.59
2018-08-23T06:37:05.632Z,26.71
2018-08-23T06:39:35.153Z,26.82
2018-08-23T06:42:05.032Z,26.75
2018-08-23T06:44:52.190Z,26.96
2018-08-23T06:47:22.922Z,27.04
2018-08-23T06:49:53.569Z,26.93
2018-08-23T06:52:30.475Z,26.98
2018-08-23T06:55:00.071Z,27.08
2018-08-23T06:57:39.280Z,27.22
2018-08-23T07:00:09.040Z,27.41
2018-08-23T07:02:42.673Z,27.52
2018-08-23T07:05:12.255Z,27.96
2018-08-23T07:07:41.795Z,28.11
2018-08-23T07:10:12.801Z,28.28
2018-08-23T07:12:42.366Z,28.61
2018-08-23T07:15:12.063Z,28.97
2018-08-23T07:17:41.763Z,28.95
2018-08-23T07:20:17.175Z,28.85
2018-08-23T07:22:46.796Z,28.81
2018-08-23T07:25:17.550Z,28.80
2018-08-23T07:27:47.381Z,28.94
2018-08-23T07:30:18.779Z,28.93
2018-08-23T07:32:49.625Z,29.29
2018-08-23T07:35:20.388Z,29.67
2018-08-23T07:37:51.350Z,29.57
2018-08-23T07:40:22.168Z,29.75
2018-08-23T07:42:53.082Z,29.74
2018-08-23T07:45:22.656Z,30.19
2018-08-23T07:47:53.654Z,30.34
2018-08-23T07:50:23.298Z,30.67
2018-08-23T07:52:54.071Z,30.86
2018-08-23T07:55:23.620Z,30.75
2018-08-23T07:57:53.238Z,30.75
2018-08-23T08:00:43.775Z,30.97
2018-08-23T08:03:14.603Z,30.95
2018-08-23T08:05:45.470Z,31.00
2018-08-23T08:08:15.117Z,30.99
2018-08-23T08:10:45.879Z,30.83
2018-08-23T08:13:15.492Z,31.03
2018-08-23T08:15:45.047Z,31.42
2018-08-23T08:18:19.662Z,31.64
2018-08-23T08:20:55.311Z,31.63
2018-08-23T08:23:24.980Z,31.70
2018-08-23T08:25:54.470Z,31.75
2018-08-23T08:28:24.049Z,31.65
2018-08-23T08:30:58.240Z,31.96
2018-08-23T08:33:33.096Z,31.87
2018-08-23T08:36:03.877Z,31.90
2018-08-23T08:38:34.036Z,31.73
2018-08-23T08:41:03.807Z,32.00
2018-08-23T08:43:33.457Z,32.17
2018-08-23T08:46:03.027Z,32.08
2018-08-23T08:48:34.471Z,32.40
2018-08-23T08:51:21.003Z,32.14
2018-08-23T08:53:50.843Z,32.06
2018-08-23T08:56:25.804Z,31.96
2018-08-23T08:58:55.416Z,32.26
2018-08-23T09:01:25.028Z,32.46
2018-08-23T09:03:54.684Z,32.41
2018-08-23T09:06:29.332Z,32.29
2018-08-23T09:08:59.176Z,32.20
2018-08-23T09:11:29.103Z,32.09
2018-08-23T09:14:02.167Z,32.20
2018-08-23T09:16:31.799Z,32.14
2018-08-23T09:19:03.616Z,32.32
2018-08-23T09:21:33.621Z,32.31
2018-08-23T09:24:36.858Z,31.79
2018-08-23T09:27:15.805Z,32.28
2018-08-23T09:29:45.377Z,32.42
2018-08-23T09:32:21.451Z,32.24
2018-08-23T09:34:55.164Z,32.33
2018-08-23T09:37:24.743Z,32.33
2018-08-23T09:39:54.279Z,32.32
2018-08-23T09:42:23.883Z,32.47
2018-08-23T09:45:04.315Z,32.11
2018-08-23T09:47:33.955Z,32.26
2018-08-23T09:50:03.700Z,32.31
2018-08-23T09:52:35.436Z,32.45
2018-08-23T09:55:05.080Z,32.47
2018-08-23T09:57:36.179Z,32.72
2018-08-23T10:00:08.356Z,32.34
2018-08-23T10:02:42.938Z,32.38
2018-08-23T10:05:17.764Z,32.48
2018-08-23T10:07:52.397Z,32.62
2018-08-23T10:10:27.984Z,32.56
2018-08-23T10:13:02.740Z,32.60
2018-08-23T10:15:37.371Z,32.75
2018-08-23T10:18:11.882Z,32.87
2018-08-23T10:20:46.872Z,32.94
2018-08-23T10:23:22.507Z,32.90
2018-08-23T10:25:53.287Z,32.32
2018-08-23T10:28:24.255Z,33.00
2018-08-23T10:30:54.201Z,32.93
2018-08-23T10:33:24.015Z,32.95
2018-08-23T10:35:57.699Z,33.01
2018-08-23T10:38:28.460Z,33.03
2018-08-23T10:41:03.120Z,33.14
2018-08-23T10:43:38.140Z,33.10
2018-08-23T10:46:07.883Z,33.16
2018-08-23T10:48:37.594Z,33.16
2018-08-23T10:51:07.532Z,33.15
2018-08-23T10:53:37.208Z,33.18
2018-08-23T10:56:06.856Z,33.20
2018-08-23T10:58:36.528Z,33.14
2018-08-23T11:01:06.111Z,33.28
2018-08-23T11:03:35.711Z,33.34
2018-08-23T11:06:05.473Z,33.38
2018-08-23T11:08:36.678Z,33.41
2018-08-23T11:11:11.315Z,33.40
2018-08-23T11:13:47.529Z,33.32
2018-08-23T11:16:22.418Z,33.34
2018-08-23T11:18:57.206Z,33.11
2018-08-23T11:21:26.817Z,33.06
2018-08-23T11:23:56.480Z,32.39
2018-08-23T11:26:27.137Z,33.04
2018-08-23T11:28:56.876Z,33.04
2018-08-23T11:31:30.468Z,33.15
2018-08-23T11:34:00.143Z,32.92
2018-08-23T11:36:29.807Z,32.91
2018-08-23T11:38:59.467Z,32.97
2018-08-23T11:41:44.945Z,32.89
2018-08-23T11:44:14.738Z,33.02
2018-08-23T11:46:44.047Z,33.08
2018-08-23T11:49:13.398Z,33.19
2018-08-23T11:51:42.816Z,32.51
2018-08-23T11:54:12.271Z,33.14
2018-08-23T11:56:41.667Z,33.15
2018-08-23T11:59:10.973Z,33.21
2018-08-23T12:01:40.491Z,33.21
2018-08-23T12:04:09.817Z,33.23
2018-08-23T12:06:39.351Z,33.16
2018-08-23T12:09:08.624Z,32.53
2018-08-23T12:11:38.072Z,33.21
2018-08-23T12:14:07.431Z,33.38
2018-08-23T12:16:36.777Z,33.46
2018-08-23T12:19:06.458Z,33.54
2018-08-23T12:21:35.748Z,33.53
2018-08-23T12:24:05.120Z,33.41
2018-08-23T12:26:34.582Z,33.33
2018-08-23T12:29:09.084Z,32.73
2018-08-23T12:31:38.727Z,33.20
2018-08-23T12:34:09.480Z,33.08
2018-08-23T12:36:43.928Z,33.14
2018-08-23T12:39:18.505Z,33.03
2018-08-23T12:41:52.962Z,32.95
2018-08-23T12:44:22.592Z,32.83
2018-08-23T12:46:56.269Z,32.78
2018-08-23T12:49:26.097Z,32.69
2018-08-23T12:51:55.631Z,32.76
2018-08-23T12:54:25.292Z,32.88
2018-08-23T12:56:54.846Z,32.78
2018-08-23T12:59:24.507Z,32.83
2018-08-23T13:01:54.112Z,32.93
2018-08-23T13:04:23.781Z,32.84
2018-08-23T13:06:53.492Z,32.79
2018-08-23T13:09:23.209Z,32.83
2018-08-23T13:11:52.825Z,32.78
2018-08-23T13:14:22.508Z,32.76
2018-08-23T13:16:52.128Z,32.68
2018-08-23T13:19:21.875Z,32.69
2018-08-23T13:21:57.442Z,32.69
2018-08-23T13:24:27.021Z,32.79
2018-08-23T13:26:56.661Z,32.89
2018-08-23T13:29:26.435Z,32.93
2018-08-23T13:31:56.686Z,33.11
2018-08-23T13:34:26.242Z,33.22
2018-08-23T13:36:55.955Z,33.28
2018-08-23T13:39:25.533Z,33.26
2018-08-23T13:41:55.406Z,33.08
2018-08-23T13:44:24.931Z,33.12
2018-08-23T13:46:54.503Z,32.95
2018-08-23T13:49:24.093Z,32.79
2018-08-23T13:51:53.788Z,32.63
2018-08-23T13:54:23.482Z,32.67
2018-08-23T13:56:53.064Z,32.65
2018-08-23T13:59:22.826Z,32.73
2018-08-23T14:01:52.461Z,32.74
2018-08-23T14:04:22.135Z,32.69
2018-08-23T14:06:51.927Z,32.70
2018-08-23T14:09:21.665Z,32.65
2018-08-23T14:11:51.189Z,32.66
2018-08-23T14:14:20.892Z,32.68
2018-08-23T14:16:50.660Z,32.70
2018-08-23T14:19:20.305Z,32.80
2018-08-23T14:21:49.916Z,32.92
2018-08-23T14:24:19.800Z,32.95
2018-08-23T14:26:49.334Z,33.05
2018-08-23T14:29:19.103Z,33.06
2018-08-23T14:31:48.649Z,33.04
2018-08-23T14:34:18.235Z,33.07
2018-08-23T14:36:48.994Z,33.09
2018-08-23T14:39:18.691Z,32.99
2018-08-23T14:41:48.250Z,32.49
2018-08-23T14:44:17.847Z,33.06
2018-08-23T14:48:55.498Z,32.39
2018-08-23T14:51:25.169Z,33.09
2018-08-23T14:53:54.792Z,33.09
2018-08-23T14:56:29.538Z,33.10
2018-08-23T14:58:59.075Z,33.12
2018-08-23T15:01:28.705Z,33.13
2018-08-23T15:03:58.314Z,33.07
2018-08-23T15:06:27.854Z,33.09
2018-08-23T15:08:57.349Z,33.08
2018-08-23T15:11:26.964Z,33.09
2018-08-23T15:13:56.514Z,33.14
2018-08-23T15:16:26.064Z,33.13
2018-08-23T15:18:55.576Z,33.11
2018-08-23T15:21:25.164Z,33.16
2018-08-23T15:23:54.709Z,33.04
2018-08-23T15:26:24.444Z,33.01
2018-08-23T15:28:53.981Z,32.90
2018-08-23T15:31:23.599Z,32.85
2018-08-23T15:33:53.096Z,32.70
2018-08-23T15:36:22.636Z,32.71
2018-08-23T15:38:52.732Z,32.65
2018-08-23T15:41:22.361Z,32.57
2018-08-23T15:43:51.947Z,32.55
2018-08-23T15:46:21.644Z,32.53
2018-08-23T15:48:51.216Z,32.40
2018-08-23T15:51:20.759Z,32.43
2018-08-23T15:53:50.263Z,32.38
2018-08-23T15:56:19.861Z,32.39
2018-08-23T15:58:49.428Z,32.38
2018-08-23T16:01:18.928Z,32.41
2018-08-23T16:03:48.587Z,32.40
2018-08-23T16:06:18.176Z,32.26
2018-08-23T16:08:51.891Z,32.12
2018-08-23T16:11:23.463Z,32.10
2018-08-23T16:13:53.492Z,31.83
2018-08-23T16:16:28.336Z,31.76
2018-08-23T16:19:02.968Z,31.71
2018-08-23T16:21:36.192Z,31.57
2018-08-23T16:24:05.731Z,31.59
2018-08-23T16:26:40.347Z,31.48
2018-08-23T16:29:09.895Z,31.32
2018-08-23T16:31:39.425Z,31.32
2018-08-23T16:34:09.055Z,31.25
2018-08-23T16:36:38.652Z,31.15
2018-08-23T16:39:08.756Z,31.03
2018-08-23T16:41:38.413Z,30.94
2018-08-23T16:44:07.960Z,30.84
2018-08-23T16:46:37.503Z,30.73
2018-08-23T16:49:07.224Z,30.65
2018-08-23T16:51:36.841Z,30.50
2018-08-23T16:54:06.395Z,30.37
2018-08-23T16:56:35.890Z,30.32
2018-08-23T16:59:05.553Z,30.22
2018-08-23T17:01:35.075Z,30.14
2018-08-23T17:04:04.660Z,30.05
2018-08-23T17:06:34.220Z,30.00
2018-08-23T17:09:04.116Z,29.89
2018-08-23T17:11:33.660Z,29.77
2018-08-23T17:14:03.373Z,29.70
2018-08-23T17:16:38.036Z,29.65
2018-08-23T17:19:07.662Z,29.58
2018-08-23T17:21:37.191Z,29.40
2018-08-23T17:24:06.828Z,29.30
2018-08-23T17:26:36.424Z,29.30
2018-08-23T17:29:05.966Z,29.25
2018-08-23T17:31:35.579Z,29.18
2018-08-23T17:34:05.189Z,29.10
2018-08-23T17:36:34.708Z,29.04
2018-08-23T17:39:04.440Z,28.99
2018-08-23T17:41:33.939Z,28.93
2018-08-23T17:44:03.491Z,28.83
2018-08-23T17:46:33.027Z,28.77
2018-08-23T17:49:02.699Z,28.71
2018-08-23T17:51:32.296Z,28.65
2018-08-23T17:54:01.831Z,28.60
2018-08-23T17:56:31.379Z,28.58
2018-08-23T17:59:00.922Z,28.49
2018-08-23T18:01:30.437Z,28.47
2018-08-23T18:04:00.003Z,28.40
2018-08-23T18:06:29.573Z,28.34
2018-08-23T18:08:59.228Z,28.26
2018-08-23T18:11:28.823Z,28.18
2018-08-23T18:13:58.344Z,28.07
2018-08-23T18:16:32.989Z,28.06
2018-08-23T18:19:03.012Z,27.93
2018-08-23T18:21:32.543Z,27.85
2018-08-23T18:24:02.119Z,27.75
2018-08-23T18:26:31.724Z,27.66
2018-08-23T18:29:01.328Z,27.60
2018-08-23T18:31:30.829Z,27.55
2018-08-23T18:34:00.351Z,27.52
2018-08-23T18:36:29.967Z,27.44
2018-08-23T18:38:59.579Z,27.35
2018-08-23T18:41:29.108Z,27.28
2018-08-23T18:43:58.703Z,27.27
2018-08-23T18:46:28.255Z,27.19
2018-08-23T18:48:59.567Z,27.08
2018-08-23T18:51:31.255Z,27.03
2018-08-23T18:54:01.230Z,26.93
2018-08-23T18:56:31.187Z,26.90
2018-08-23T18:59:00.719Z,26.83
2018-08-23T19:01:30.419Z,26.83
2018-08-23T19:03:59.932Z,26.77
2018-08-23T19:06:34.461Z,26.75
2018-08-23T19:09:05.832Z,26.70
2018-08-23T19:11:35.439Z,26.67
2018-08-23T19:14:04.959Z,26.53
2018-08-23T19:16:39.496Z,26.53
2018-08-23T19:19:09.121Z,26.51
2018-08-23T19:21:38.863Z,26.54
2018-08-23T19:24:08.429Z,26.51
2018-08-23T19:26:37.971Z,26.50
2018-08-23T19:29:07.568Z,26.43
2018-08-23T19:31:37.242Z,26.42
2018-08-23T19:34:06.813Z,26.42
2018-08-23T19:36:36.388Z,26.36
2018-08-23T19:39:09.547Z,26.40
2018-08-23T19:41:39.122Z,26.24
2018-08-23T19:44:08.792Z,26.27
2018-08-23T19:46:43.287Z,26.15
2018-08-23T19:49:17.983Z,26.19
2018-08-23T19:51:47.548Z,26.17
2018-08-23T19:54:17.160Z,26.02
2018-08-23T19:56:46.761Z,25.98
2018-08-23T19:59:16.284Z,25.96
2018-08-23T20:01:45.819Z,25.85
2018-08-23T20:04:15.311Z,25.85
2018-08-23T20:06:44.890Z,25.68
2018-08-23T20:09:14.484Z,24.81
2018-08-23T20:11:44.043Z,25.51
2018-08-23T20:14:13.611Z,25.45
2018-08-23T20:16:43.158Z,25.31
2018-08-23T20:19:12.691Z,25.19
2018-08-23T20:21:42.252Z,25.18
2018-08-23T20:24:11.835Z,25.11
2018-08-23T20:26:41.459Z,25.11
2018-08-23T20:29:10.959Z,24.99
2018-08-23T20:31:40.476Z,24.90
2018-08-23T20:34:10.025Z,24.85
2018-08-23T20:36:39.577Z,24.80
2018-08-23T20:39:12.000Z,24.75
2018-08-23T20:41:41.736Z,24.66
2018-08-23T20:44:11.267Z,24.61
2018-08-23T20:46:41.254Z,24.61
2018-08-23T20:49:11.142Z,24.65
2018-08-23T20:51:40.840Z,24.64
2018-08-23T20:54:10.353Z,24.48
2018-08-23T20:56:39.935Z,24.35
2018-08-23T20:59:09.413Z,24.47
2018-08-23T21:01:38.939Z,24.32
2018-08-23T21:04:08.624Z,24.39
2018-08-23T21:06:38.071Z,24.36
2018-08-23T21:09:10.192Z,24.32
2018-08-23T21:11:40.031Z,24.27
2018-08-23T21:14:10.354Z,24.22
2018-08-23T21:16:39.904Z,24.25
2018-08-23T21:19:09.603Z,24.18
2018-08-23T21:21:39.151Z,24.17
2018-08-23T21:24:08.717Z,24.12
2018-08-23T21:26:38.267Z,24.02
2018-08-23T21:29:07.861Z,24.04
2018-08-23T21:31:37.412Z,23.96
2018-08-23T21:34:06.971Z,23.88
2018-08-23T21:36:36.561Z,23.85
2018-08-23T21:39:08.191Z,23.67
2018-08-23T21:41:37.749Z,23.63
2018-08-23T21:44:07.288Z,23.58
2018-08-23T21:46:36.763Z,23.57
2018-08-23T21:49:06.319Z,23.58
2018-08-23T21:51:35.944Z,23.50
2018-08-23T21:54:05.570Z,23.54
2018-08-23T21:56:35.065Z,23.47
2018-08-23T21:59:04.659Z,23.42
2018-08-23T22:01:34.248Z,23.20
2018-08-23T22:04:03.871Z,23.14
2018-08-23T22:06:33.478Z,23.00
2018-08-23T22:09:03.105Z,22.96
2018-08-23T22:11:32.606Z,22.98
2018-08-23T22:14:02.236Z,22.92
2018-08-23T22:16:31.720Z,22.93
2018-08-23T22:19:01.313Z,22.98
2018-08-23T22:21:30.882Z,22.94
2018-08-23T22:24:00.436Z,22.88
2018-08-23T22:26:29.967Z,22.87
2018-08-23T22:28:59.507Z,22.96
2018-08-23T22:31:28.999Z,23.04
2018-08-23T22:33:58.514Z,23.09
2018-08-23T22:36:28.072Z,23.09
2018-08-23T22:38:57.559Z,23.13
2018-08-23T22:41:27.103Z,23.15
2018-08-23T22:43:56.651Z,23.12
2018-08-23T22:46:26.184Z,23.15
2018-08-23T22:48:55.725Z,23.05
2018-08-23T22:51:25.355Z,23.06
2018-08-23T22:53:54.988Z,23.04
2018-08-23T22:56:24.552Z,22.97
2018-08-23T22:58:54.055Z,22.83
2018-08-23T23:01:23.706Z,22.83
2018-08-23T23:03:58.310Z,22.83
2018-08-23T23:06:27.943Z,22.86
2018-08-23T23:08:57.529Z,22.86
2018-08-23T23:11:27.074Z,22.72
2018-08-23T23:13:56.664Z,22.73
2018-08-23T23:16:26.484Z,22.75
2018-08-23T23:18:55.975Z,22.74
2018-08-23T23:21:25.508Z,22.68
2018-08-23T23:23:55.023Z,22.60
2018-08-23T23:26:24.518Z,22.45
2018-08-23T23:28:54.087Z,22.30
2018-08-23T23:31:23.673Z,22.11
2018-08-23T23:33:53.186Z,22.22
2018-08-23T23:36:22.706Z,22.25
2018-08-23T23:38:52.240Z,22.31
2018-08-23T23:41:21.728Z,22.32
2018-08-23T23:43:51.299Z,22.35
2018-08-23T23:46:20.840Z,22.38
2018-08-23T23:48:50.333Z,22.40
2018-08-23T23:51:19.919Z,22.38
2018-08-23T23:53:49.572Z,22.36
2018-08-23T23:56:19.139Z,22.32
2018-08-23T23:58:48.642Z,22.38
